Terminal Aerodrome Forecast
Issued by NWS Sterling, VA

Current Version | Previous Version | Text Only | Print | Product List | Glossary Off
Versions: 1 2 3 4 5 6 7 8 9 10 11 12 13 14 15 16

000
FTUS41 KLWX 261100
TAFMRB
TAF
KMRB 261134Z 2612/2712 VRB03KT P6SM BKN130
     FM261700 24008KT P6SM BKN050
     FM270100 19004KT P6SM SCT050 BKN130
     FM270900 VRB03KT 5SM BR SCT050 BKN130=

USA.gov is the U.S. government's official web portal to all federal, state and local government web resources and services.